Frenchville, Maine
Current Conditions -  °F | °C
As of 7:53 PM on Thursday 27 Nov 2014 (Local Time) from KFVE Reporting Station
Clear Clear  
Wind Chill:   Ceiling: Unl
Heat Index: 14°   Visibility: 10mi
Dew Point:   Wind: 7mph
Humidity: 77%   Direction: 310°NW
Pressure: 29.95"   Gusts: NA
Location:  47.28°N, 68.38°W
Report Text: KFVE 280053Z AUTO 31006KT 10SM CLR M10/M13 A2995 RMK AO2 SLP158 T11001133
Loading
Personal Weather Stations






























Interactive Weather Map New forecast layout! Learn more

10-Day Weather Forecast

Advertisements
Track Severe Weather on mobile